Time;durP1;ratioP1;P1;durP2;ratioP2;P2;SDS_P1;SDS_P2;PMS_P1;PMS_P2;Temp;Humidity;BMP_temperature;BMP_pressure;BME280_temperature;BME280_humidity;BME280_pressure;Samples;Min_cycle;Max_cycle;Signal;HPM_P1;HPM_P2
2022/06/29 00:01:36;;;;;;;6.35;1.48;;;17.90;71.20;;;;;;5029342;28;20022;-73
2022/06/29 00:04:02;;;;;;;6.85;1.48;;;17.90;71.00;;;;;;5025805;28;20033;-73
2022/06/29 00:06:27;;;;;;;7.93;1.48;;;17.90;71.10;;;;;;5029815;28;20025;-73
2022/06/29 00:08:53;;;;;;;6.53;1.50;;;17.90;71.30;;;;;;5027772;28;20105;-73
2022/06/29 00:11:19;;;;;;;6.47;1.48;;;18.50;79.10;;;;;;5028890;28;20049;-73
2022/06/29 00:13:44;;;;;;;8.18;1.58;;;17.90;71.40;;;;;;5027549;28;20034;-73
2022/06/29 00:16:10;;;;;;;8.68;1.70;;;17.90;70.90;;;;;;5028211;28;20033;-73
2022/06/29 00:18:37;;;;;;;12.90;1.85;;;17.90;71.00;;;;;;5030163;28;20045;-73
2022/06/29 00:21:02;;;;;;;10.18;1.50;;;17.90;71.10;;;;;;5027897;28;20027;-73
2022/06/29 00:23:28;;;;;;;10.25;1.80;;;18.90;81.40;;;;;;5025251;28;20416;-73
2022/06/29 00:25:54;;;;;;;8.55;1.90;;;17.90;71.80;;;;;;5029054;28;20034;-74
2022/06/29 00:28:19;;;;;;;10.02;1.80;;;17.90;71.60;;;;;;5020873;28;20408;-73
2022/06/29 00:30:45;;;;;;;9.20;1.63;;;17.90;71.70;;;;;;5030131;28;20100;-74
2022/06/29 00:33:11;;;;;;;7.15;1.50;;;17.90;71.80;;;;;;5028294;28;20042;-74
2022/06/29 00:35:36;;;;;;;10.63;1.80;;;17.90;71.90;;;;;;5022582;28;20037;-73
2022/06/29 00:38:02;;;;;;;8.52;1.88;;;17.90;71.70;;;;;;5028433;28;20033;-73
2022/06/29 00:40:28;;;;;;;7.57;1.95;;;17.90;71.40;;;;;;5031175;28;20029;-73
2022/06/29 00:42:53;;;;;;;7.07;1.45;;;18.00;71.30;;;;;;5024755;28;20854;-73
2022/06/29 00:45:19;;;;;;;8.70;1.90;;;18.00;71.00;;;;;;5029568;28;20025;-73
2022/06/29 00:47:45;;;;;;;6.40;1.30;;;18.00;70.70;;;;;;5027779;28;20076;-73
2022/06/29 00:50:11;;;;;;;4.80;1.30;;;16.70;86.80;;;;;;5028848;28;20022;-74
2022/06/29 00:52:41;;;;;;;5.43;1.50;;;18.50;75.60;;;;;;5028317;28;20126;-73
2022/06/29 00:55:10;;;;;;;4.72;1.42;;;18.00;79.40;;;;;;5025423;28;20393;-73
2022/06/29 00:57:40;;;;;;;9.45;1.70;;;17.90;76.40;;;;;;5028481;28;20112;-73
2022/06/29 01:00:07;;;;;;;5.75;1.60;;;18.20;70.10;;;;;;5023194;28;20021;-73
2022/06/29 01:02:32;;;;;;;5.45;1.38;;;17.90;74.40;;;;;;5025482;28;20044;-73
2022/06/29 01:04:58;;;;;;;5.85;1.50;;;18.70;80.90;;;;;;5022987;28;20021;-73
2022/06/29 01:07:28;;;;;;;10.70;1.60;;;18.20;70.70;;;;;;5027476;28;20038;-73
2022/06/29 01:09:54;;;;;;;10.43;1.65;;;17.10;89.40;;;;;;5028256;28;20025;-73
2022/06/29 01:12:20;;;;;;;7.50;1.60;;;18.00;71.40;;;;;;5029010;28;20025;-73
2022/06/29 01:14:48;;;;;;;6.07;1.40;;;18.00;71.90;;;;;;5027452;28;20448;-73
2022/06/29 01:17:14;;;;;;;9.85;1.75;;;17.90;72.40;;;;;;5021608;28;20049;-73
2022/06/29 01:19:41;;;;;;;8.73;1.70;;;17.90;72.50;;;;;;5026886;28;20413;-73
2022/06/29 01:22:15;;;;;;;7.68;1.60;;;18.40;73.20;;;;;;5027426;28;20072;-73
2022/06/29 01:24:44;;;;;;;5.97;1.23;;;17.80;73.00;;;;;;5028538;28;20033;-73
2022/06/29 01:27:11;;;;;;;6.72;1.58;;;17.80;73.30;;;;;;5025024;28;20029;-73
2022/06/29 01:29:37;;;;;;;7.30;1.63;;;17.80;73.50;;;;;;5023056;28;20054;-73
2022/06/29 01:32:03;;;;;;;5.97;1.52;;;17.80;73.80;;;;;;5027449;28;20531;-73
2022/06/29 01:34:30;;;;;;;6.78;1.63;;;18.20;80.40;;;;;;5026421;28;20079;-73
2022/06/29 01:36:57;;;;;;;8.43;1.70;;;16.40;81.30;;;;;;5027238;28;20033;-73
2022/06/29 01:39:23;;;;;;;8.25;1.60;;;17.80;75.30;;;;;;5028282;28;20029;-73
2022/06/29 01:41:48;;;;;;;7.63;1.58;;;17.70;74.70;;;;;;5025338;28;20021;-73
2022/06/29 01:44:14;;;;;;;8.00;1.80;;;18.70;79.70;;;;;;5025947;28;20091;-73
2022/06/29 01:46:40;;;;;;;5.50;1.50;;;17.70;74.70;;;;;;5021862;28;20105;-73
2022/06/29 01:49:07;;;;;;;6.28;1.60;;;;;;;;;;5025909;28;20033;-73
2022/06/29 01:51:33;;;;;;;7.03;2.13;;;17.70;78.90;;;;;;5026925;28;20656;-73
2022/06/29 01:53:59;;;;;;;5.28;1.50;;;17.70;75.50;;;;;;5026864;28;20041;-73
2022/06/29 01:56:25;;;;;;;6.55;1.70;;;17.70;75.40;;;;;;5025095;28;20029;-73
2022/06/29 01:58:50;;;;;;;6.18;1.50;;;17.70;75.80;;;;;;5025827;28;20029;-73
2022/06/29 02:01:16;;;;;;;6.60;1.58;;;17.70;75.90;;;;;;5027557;28;20036;-73
2022/06/29 02:03:42;;;;;;;6.93;1.77;;;17.70;75.80;;;;;;5027710;28;20047;-73
2022/06/29 02:06:08;;;;;;;7.72;1.88;;;17.80;80.00;;;;;;5027372;28;20033;-74
2022/06/29 02:08:34;;;;;;;6.53;1.48;;;17.60;76.70;;;;;;5024981;28;20095;-74
2022/06/29 02:11:00;;;;;;;5.72;1.48;;;17.60;82.60;;;;;;5025254;28;20029;-73
2022/06/29 02:13:26;;;;;;;7.10;1.80;;;17.60;77.30;;;;;;5021372;28;20036;-74
2022/06/29 02:15:52;;;;;;;6.10;1.52;;;17.50;77.40;;;;;;5028079;28;20025;-73
2022/06/29 02:18:18;;;;;;;6.95;1.65;;;17.60;77.40;;;;;;5026916;28;20111;-74
2022/06/29 02:20:43;;;;;;;7.72;1.55;;;17.60;77.40;;;;;;5026732;28;20088;-73
2022/06/29 02:23:09;;;;;;;6.82;1.88;;;17.60;77.40;;;;;;5026054;28;20080;-74
2022/06/29 02:25:35;;;;;;;7.65;1.70;;;17.70;81.20;;;;;;5026427;28;20029;-74
2022/06/29 02:28:00;;;;;;;6.28;1.77;;;17.60;79.50;;;;;;5024604;28;20116;-74
2022/06/29 02:35:56;;;;;;;5.60;1.40;;;17.70;77.50;;;;;;5025454;28;20122;-74
2022/06/29 02:38:22;;;;;;;6.57;1.65;;;17.90;77.30;;;;;;5025923;28;20029;-74
2022/06/29 02:40:48;;;;;;;9.60;1.70;;;17.80;77.10;;;;;;5031599;28;20029;-74
2022/06/29 02:43:13;;;;;;;5.80;1.67;;;17.80;76.90;;;;;;5024501;28;20030;-74
2022/06/29 02:45:39;;;;;;;5.47;1.33;;;17.90;76.60;;;;;;5025182;28;20399;-74
2022/06/29 02:48:05;;;;;;;5.30;1.52;;;17.90;76.80;;;;;;5025043;28;20416;-74
2022/06/29 02:50:31;;;;;;;5.63;1.58;;;17.90;76.80;;;;;;5026771;28;20104;-74
2022/06/29 02:52:58;;;;;;;8.05;1.75;;;17.90;77.20;;;;;;5025801;28;20037;-74
2022/06/29 02:55:23;;;;;;;4.90;1.80;;;17.90;77.50;;;;;;5024281;28;20031;-74
2022/06/29 02:57:49;;;;;;;4.85;1.35;;;17.20;78.80;;;;;;5025487;28;20033;-74
2022/06/29 03:00:15;;;;;;;7.93;1.80;;;17.90;77.00;;;;;;5024652;28;20064;-74
2022/06/29 03:02:41;;;;;;;11.98;1.70;;;17.90;77.40;;;;;;5024156;28;20111;-74
2022/06/29 03:05:07;;;;;;;9.93;1.90;;;16.50;77.80;;;;;;5025028;28;20471;-74
2022/06/29 03:07:33;;;;;;;7.57;1.90;;;17.80;78.20;;;;;;5025503;28;20040;-74
2022/06/29 03:09:59;;;;;;;9.05;2.08;;;17.80;79.00;;;;;;5028417;28;20026;-74
2022/06/29 03:12:24;;;;;;;11.20;2.80;;;17.70;79.20;;;;;;5028461;28;20052;-74
2022/06/29 03:14:50;;;;;;;6.75;1.83;;;17.70;79.50;;;;;;5025369;28;20021;-74
2022/06/29 03:17:16;;;;;;;9.18;2.22;;;17.70;80.00;;;;;;5024560;28;20044;-74
2022/06/29 03:19:42;;;;;;;9.68;1.70;;;17.70;80.20;;;;;;5029725;28;20065;-73
2022/06/29 03:22:07;;;;;;;7.50;1.73;;;17.70;80.00;;;;;;5029728;28;20115;-74
2022/06/29 03:24:33;;;;;;;7.45;1.50;;;17.70;80.20;;;;;;5030847;28;20057;-74
2022/06/29 03:26:59;;;;;;;7.38;1.80;;;17.80;80.10;;;;;;5030194;28;20034;-74
2022/06/29 03:29:25;;;;;;;6.85;1.60;;;17.80;80.50;;;;;;5026381;28;20036;-74
2022/06/29 03:31:51;;;;;;;7.32;1.42;;;17.80;80.60;;;;;;5030246;28;20022;-74
2022/06/29 03:34:17;;;;;;;6.13;1.60;;;17.80;80.80;;;;;;5026711;28;20035;-74
2022/06/29 03:36:42;;;;;;;7.30;1.70;;;17.70;80.70;;;;;;5026732;28;20026;-73
2022/06/29 03:39:08;;;;;;;6.97;1.70;;;17.70;80.50;;;;;;5029757;28;20036;-74
2022/06/29 03:41:34;;;;;;;6.00;1.40;;;17.80;80.40;;;;;;5029419;28;20077;-74
2022/06/29 03:44:00;;;;;;;5.70;1.40;;;17.80;80.70;;;;;;5026990;28;20392;-74
2022/06/29 03:46:25;;;;;;;7.95;1.75;;;17.70;81.20;;;;;;5027509;28;20514;-74
2022/06/29 03:48:51;;;;;;;6.47;1.80;;;17.70;81.30;;;;;;5026811;28;20040;-74
2022/06/29 03:51:17;;;;;;;8.30;1.70;;;17.70;80.80;;;;;;5025823;28;20041;-74
2022/06/29 03:53:42;;;;;;;6.40;1.88;;;17.80;80.90;;;;;;5028367;28;20052;-74
2022/06/29 03:56:08;;;;;;;8.02;1.90;;;17.70;81.30;;;;;;5030385;28;20033;-74
2022/06/29 03:58:34;;;;;;;8.85;2.05;;;17.70;81.30;;;;;;5029261;28;20033;-74
2022/06/29 04:00:59;;;;;;;7.45;1.98;;;17.70;81.30;;;;;;5030077;28;20025;-74
2022/06/29 04:03:25;;;;;;;11.40;1.83;;;17.70;81.30;;;;;;5026750;28;20037;-74
2022/06/29 04:05:51;;;;;;;7.82;1.92;;;17.80;81.50;;;;;;5027973;28;20111;-74
2022/06/29 04:08:17;;;;;;;9.15;1.85;;;17.70;81.50;;;;;;5025390;28;20030;-74
2022/06/29 04:10:43;;;;;;;9.05;2.20;;;17.70;81.60;;;;;;5030134;28;20029;-74
2022/06/29 04:13:09;;;;;;;7.32;1.50;;;17.70;81.20;;;;;;5028717;28;20068;-74
2022/06/29 04:15:35;;;;;;;11.45;1.80;;;17.70;81.60;;;;;;5030879;28;20076;-74
2022/06/29 04:18:01;;;;;;;7.88;2.08;;;17.70;81.70;;;;;;5028643;28;20107;-74
2022/06/29 04:23:12;;;;;;;7.93;2.05;;;17.70;81.40;;;;;;5029244;28;20107;-74
2022/06/29 04:25:37;;;;;;;11.23;1.88;;;17.70;81.90;;;;;;5029454;28;20025;-74
2022/06/29 04:28:03;;;;;;;6.65;1.80;;;17.70;82.00;;;;;;5027283;28;20048;-74
2022/06/29 04:30:29;;;;;;;8.45;1.90;;;17.70;82.20;;;;;;5028175;28;20036;-74
2022/06/29 04:32:55;;;;;;;6.15;1.63;;;17.70;82.30;;;;;;5029590;28;20095;-74
2022/06/29 04:35:21;;;;;;;5.90;1.95;;;17.70;82.40;;;;;;5027919;28;20024;-74
2022/06/29 04:37:47;;;;;;;5.88;2.17;;;17.60;83.30;;;;;;5024989;28;20612;-74
2022/06/29 04:40:13;;;;;;;8.15;2.10;;;17.60;82.30;;;;;;5029806;28;20033;-74
2022/06/29 04:42:39;;;;;;;9.40;2.10;;;17.70;82.20;;;;;;5028679;28;20048;-76
2022/06/29 04:45:05;;;;;;;8.93;2.35;;;17.70;82.20;;;;;;5023630;28;20101;-74
2022/06/29 04:47:30;;;;;;;7.35;1.80;;;17.70;82.00;;;;;;5025409;28;20393;-73
2022/06/29 04:49:56;;;;;;;8.48;2.03;;;17.70;81.90;;;;;;5028258;28;20025;-73
2022/06/29 04:52:24;;;;;;;8.65;2.55;;;17.80;81.60;;;;;;5029123;28;20045;-73
2022/06/29 04:54:50;;;;;;;5.57;1.55;;;17.80;81.60;;;;;;5030925;28;20088;-73
2022/06/29 04:57:16;;;;;;;7.18;2.00;;;17.70;81.80;;;;;;5029955;28;20550;-73
2022/06/29 04:59:42;;;;;;;5.13;1.52;;;17.70;81.90;;;;;;5031048;28;20040;-73
2022/06/29 05:02:07;;;;;;;8.30;1.90;;;17.80;82.20;;;;;;5030037;28;20021;-73
2022/06/29 05:04:33;;;;;;;6.75;1.75;;;17.70;82.40;;;;;;5026591;28;20033;-72
2022/06/29 05:06:59;;;;;;;6.65;1.95;;;17.30;85.70;;;;;;5024823;28;20037;-74
2022/06/29 05:09:25;;;;;;;6.95;1.70;;;17.60;84.70;;;;;;5030451;28;20132;-73
2022/06/29 05:11:50;;;;;;;9.10;2.20;;;17.80;82.70;;;;;;5022527;28;20038;-74
2022/06/29 05:14:16;;;;;;;6.25;1.70;;;17.20;88.50;;;;;;5028619;28;20033;-74
2022/06/29 05:16:42;;;;;;;8.20;1.90;;;17.80;83.10;;;;;;5027603;28;20034;-74
2022/06/29 05:19:07;;;;;;;8.25;1.70;;;17.80;84.60;;;;;;5028312;28;20053;-74
2022/06/29 05:21:33;;;;;;;9.13;2.13;;;17.80;84.90;;;;;;5039491;28;20032;-74
2022/06/29 05:23:59;;;;;;;7.53;1.73;;;17.80;85.60;;;;;;5027083;28;20022;-74
2022/06/29 05:26:25;;;;;;;6.53;1.70;;;17.10;89.70;;;;;;5023889;28;20750;-74
2022/06/29 05:28:51;;;;;;;7.70;1.80;;;17.80;86.30;;;;;;5026873;28;20029;-74
2022/06/29 05:31:20;;;;;;;8.98;2.00;;;17.80;87.60;;;;;;5029578;28;20681;-74
2022/06/29 05:33:45;;;;;;;5.57;1.98;;;17.80;88.00;;;;;;5028859;28;20543;-74
2022/06/29 05:36:11;;;;;;;6.53;1.90;;;17.80;89.30;;;;;;5028222;28;20111;-74
2022/06/29 05:38:38;;;;;;;8.52;2.10;;;17.70;91.40;;;;;;5025165;28;20041;-74
2022/06/29 05:41:04;;;;;;;4.20;1.52;;;17.80;90.30;;;;;;5028966;28;20052;-74
2022/06/29 05:43:30;;;;;;;6.07;1.95;;;17.80;90.80;;;;;;5026437;28;20697;-77
2022/06/29 05:45:57;;;;;;;7.60;2.00;;;17.50;93.40;;;;;;5056419;28;20063;-74
2022/06/29 05:48:22;;;;;;;8.27;1.85;;;19.80;95.80;;;;;;5023498;28;20143;-76
2022/06/29 05:50:48;;;;;;;7.82;2.08;;;18.70;97.40;;;;;;5027763;28;20036;-76
2022/06/29 05:53:14;;;;;;;7.65;2.10;;;17.60;93.30;;;;;;5025519;28;20051;-74
2022/06/29 05:55:40;;;;;;;5.35;2.22;;;17.60;93.60;;;;;;5036754;28;20409;-74
2022/06/29 05:58:06;;;;;;;8.02;1.58;;;17.60;93.20;;;;;;5027160;28;20030;-74
2022/06/29 06:00:32;;;;;;;4.82;1.30;;;17.60;92.90;;;;;;5029585;28;20021;-77
2022/06/29 06:02:58;;;;;;;2.85;0.98;;;17.60;92.30;;;;;;5024184;28;20404;-76
2022/06/29 06:05:24;;;;;;;4.72;1.10;;;17.60;91.70;;;;;;5032507;28;20120;-77
2022/06/29 06:07:50;;;;;;;2.88;1.00;;;16.70;93.60;;;;;;5030936;28;20014;-75
2022/06/29 06:10:15;;;;;;;4.35;1.08;;;17.70;91.00;;;;;;5021690;28;20044;-75
2022/06/29 06:12:41;;;;;;;3.78;1.00;;;17.70;90.80;;;;;;5026299;28;20052;-75
2022/06/29 06:15:07;;;;;;;4.28;1.23;;;18.80;90.70;;;;;;5023482;28;20036;-75
2022/06/29 06:17:33;;;;;;;3.38;1.10;;;17.70;90.50;;;;;;5027253;28;20502;-76
2022/06/29 06:19:59;;;;;;;3.88;1.20;;;19.70;94.30;;;;;;5022846;28;20053;-75
2022/06/29 06:22:24;;;;;;;4.03;1.33;;;18.30;93.70;;;;;;5027797;28;20085;-77
2022/06/29 06:24:50;;;;;;;3.30;1.15;;;18.50;94.30;;;;;;5030754;28;20096;-75
2022/06/29 06:27:16;;;;;;;3.05;1.17;;;18.80;93.40;;;;;;5022891;28;20473;-75
2022/06/29 06:29:43;;;;;;;6.35;1.20;;;17.80;89.60;;;;;;5018803;28;20377;-76
2022/06/29 06:32:09;;;;;;;3.75;1.35;;;18.50;91.10;;;;;;5022087;28;20380;-75
2022/06/29 06:34:35;;;;;;;4.45;1.40;;;17.80;90.00;;;;;;5022215;28;20051;-76
2022/06/29 06:37:01;;;;;;;5.10;1.20;;;18.30;90.70;;;;;;5023709;28;20480;-75
2022/06/29 06:39:27;;;;;;;3.75;1.25;;;19.00;90.90;;;;;;5025757;28;20043;-76
2022/06/29 06:41:53;;;;;;;4.32;1.30;;;18.00;89.10;;;;;;5019938;28;20030;-77
2022/06/29 06:44:19;;;;;;;3.70;1.30;;;18.00;88.90;;;;;;5023366;28;20116;-76
2022/06/29 06:46:48;;;;;;;5.20;1.50;;;18.10;88.20;;;;;;5024239;28;22077;-76
2022/06/29 06:49:28;;;;;;;5.10;1.40;;;18.20;88.20;;;;;;5025226;28;20088;-78
2022/06/29 06:51:53;;;;;;;3.72;1.40;;;18.20;88.10;;;;;;5021734;28;20013;-82
2022/06/29 06:54:19;;;;;;;5.15;1.50;;;18.30;87.40;;;;;;5026152;28;20132;-77
2022/06/29 06:56:45;;;;;;;6.45;1.70;;;18.40;87.70;;;;;;5023823;28;20113;-77
2022/06/29 06:59:11;;;;;;;6.15;1.67;;;18.40;87.50;;;;;;5024364;28;20370;-76
2022/06/29 07:01:37;;;;;;;6.07;1.55;;;19.40;87.60;;;;;;5020579;28;20025;-77
2022/06/29 07:04:02;;;;;;;5.65;1.55;;;18.60;86.40;;;;;;5022096;28;20112;-77
2022/06/29 07:06:28;;;;;;;6.95;1.52;;;19.70;86.80;;;;;;5025725;28;20079;-82
2022/06/29 07:08:54;;;;;;;7.38;1.80;;;18.70;85.80;;;;;;5024423;28;20041;-83
2022/06/29 07:11:20;;;;;;;6.28;1.55;;;18.80;85.60;;;;;;5021562;28;20034;-86
2022/06/29 07:13:46;;;;;;;8.48;1.70;;;19.80;84.50;;;;;;5021511;28;20168;-80
2022/06/29 07:16:11;;;;;;;4.88;1.42;;;18.90;83.40;;;;;;5015907;28;20035;-79
2022/06/29 07:18:37;;;;;;;7.05;1.75;;;19.10;82.80;;;;;;5012806;28;20049;-79
2022/06/29 07:21:03;;;;;;;8.30;1.77;;;;;;;;;;5020452;28;20021;-79
2022/06/29 07:23:29;;;;;;;8.05;1.50;;;20.20;85.70;;;;;;5021090;28;20108;-79
2022/06/29 07:25:56;;;;;;;7.70;1.67;;;19.30;83.70;;;;;;5020325;28;20579;-80
2022/06/29 07:28:22;;;;;;;8.88;1.80;;;19.10;81.50;;;;;;5023702;28;20087;-80
2022/06/29 07:30:48;;;;;;;7.78;1.70;;;19.20;80.60;;;;;;5025047;28;20036;-79
2022/06/29 07:33:14;;;;;;;9.55;1.70;;;;;;;;;;5016414;28;20034;-78
2022/06/29 07:35:40;;;;;;;6.93;1.58;;;19.70;80.80;;;;;;5020165;28;20033;-77
2022/06/29 07:38:09;;;;;;;8.13;1.80;;;19.60;84.30;;;;;;5019369;28;20068;-84
2022/06/29 07:40:35;;;;;;;6.97;1.73;;;21.60;84.80;;;;;;5027186;28;20064;-81
2022/06/29 07:43:00;;;;;;;8.20;2.30;;;19.40;79.40;;;;;;5025223;28;20061;-87
2022/06/29 07:45:26;;;;;;;7.25;1.83;;;18.30;85.70;;;;;;5024681;28;20022;-78
2022/06/29 07:47:52;;;;;;;8.38;1.95;;;19.50;78.20;;;;;;5021252;28;20022;-78
2022/06/29 07:50:18;;;;;;;9.25;1.90;;;19.70;77.60;;;;;;5023682;28;20033;-77
2022/06/29 07:52:46;;;;;;;12.35;1.88;;;21.40;80.70;;;;;;5014663;28;20037;-77
2022/06/29 07:55:12;;;;;;;6.05;1.70;;;19.90;76.20;;;;;;5022726;28;20045;-77
2022/06/29 07:57:38;;;;;;;8.68;2.00;;;20.90;76.70;;;;;;5013206;28;20029;-77
2022/06/29 08:00:06;;;;;;;8.13;1.80;;;19.80;77.40;;;;;;5024604;28;20037;-77
2022/06/29 08:02:31;;;;;;;8.25;1.90;;;20.50;74.20;;;;;;5022335;28;20080;-77
2022/06/29 08:04:59;;;;;;;11.27;2.25;;;20.60;74.10;;;;;;5027939;28;20033;-78
2022/06/29 08:07:25;;;;;;;10.15;2.50;;;21.10;80.10;;;;;;5029989;28;20024;-78
2022/06/29 08:09:53;;;;;;;12.18;2.45;;;20.50;73.40;;;;;;5030130;28;20025;-78
2022/06/29 08:12:19;;;;;;;11.73;2.50;;;19.70;75.80;;;;;;5028871;28;20366;-78
2022/06/29 08:14:45;;;;;;;10.30;2.40;;;20.90;73.30;;;;;;5027018;28;20159;-79
2022/06/29 08:17:10;;;;;;;12.55;2.05;;;20.30;72.20;;;;;;5025011;28;20109;-78
2022/06/29 08:19:36;;;;;;;9.63;2.22;;;20.50;72.30;;;;;;5028159;28;20057;-79
2022/06/29 08:22:02;;;;;;;8.80;1.92;;;20.50;72.60;;;;;;5021016;28;20099;-80
2022/06/29 08:24:28;;;;;;;8.30;1.80;;;20.70;73.30;;;;;;5026231;28;20029;-77
2022/06/29 08:26:54;;;;;;;9.88;2.35;;;20.70;76.70;;;;;;5029634;28;20032;-79
2022/06/29 08:29:20;;;;;;;10.05;1.77;;;22.70;79.50;;;;;;5027250;28;20551;-83
2022/06/29 08:31:46;;;;;;;9.18;2.08;;;20.70;72.60;;;;;;5028647;28;20052;-83
2022/06/29 08:34:37;;;;;;;8.65;1.95;;;20.70;76.80;;;;;;5039204;28;20064;-79
2022/06/29 08:37:01;;;;;;;8.35;1.92;;;20.70;72.40;;;;;;5021891;28;20033;-79
2022/06/29 08:39:27;;;;;;;7.75;1.52;;;20.80;72.60;;;;;;5037186;28;20107;-84
2022/06/29 08:41:56;;;;;;;8.57;1.77;;;20.70;72.50;;;;;;5028950;28;20120;-85
2022/06/29 08:44:22;;;;;;;11.68;1.90;;;20.80;72.00;;;;;;5027944;28;20086;-85
2022/06/29 08:46:48;;;;;;;6.70;1.35;;;20.90;71.20;;;;;;5029986;28;20108;-83
2022/06/29 08:49:14;;;;;;;7.55;1.77;;;22.00;68.60;;;;;;5013210;28;20156;-78
2022/06/29 08:51:41;;;;;;;9.43;1.90;;;21.20;68.40;;;;;;5028794;28;20041;-79
2022/06/29 08:54:08;;;;;;;8.57;1.67;;;21.30;66.50;;;;;;5024986;28;20033;-79
2022/06/29 08:56:35;;;;;;;8.65;1.88;;;21.40;65.70;;;;;;5021101;28;20060;-79
2022/06/29 08:59:03;;;;;;;10.13;1.65;;;21.40;64.90;;;;;;5021606;28;20029;-79
2022/06/29 09:01:29;;;;;;;9.57;1.60;;;21.50;65.30;;;;;;5035581;28;20021;-79
2022/06/29 09:03:55;;;;;;;8.13;1.50;;;21.70;64.40;;;;;;5025827;28;20429;-78
2022/06/29 09:06:21;;;;;;;6.40;1.60;;;21.80;63.60;;;;;;5026788;28;20104;-78
2022/06/29 09:08:47;;;;;;;9.23;1.70;;;21.90;63.60;;;;;;5025566;28;20089;-78
2022/06/29 09:11:24;;;;;;;9.70;1.58;;;22.10;61.60;;;;;;5031316;28;20029;-78
2022/06/29 09:14:13;;;;;;;7.93;1.75;;;22.10;61.60;;;;;;5024292;28;20516;-78
2022/06/29 09:16:53;;;;;;;7.82;1.70;;;22.20;61.10;;;;;;5022156;28;20030;-78
2022/06/29 09:19:21;;;;;;;7.37;1.67;;;22.30;60.30;;;;;;5012928;28;20049;-78
2022/06/29 09:21:52;;;;;;;7.38;1.63;;;22.60;59.40;;;;;;5023411;28;20104;-79
2022/06/29 09:24:20;;;;;;;7.45;1.70;;;22.90;57.80;;;;;;5019591;28;20460;-79
2022/06/29 09:26:59;;;;;;;7.00;1.75;;;23.50;55.90;;;;;;5025832;28;20519;-78
2022/06/29 09:29:27;;;;;;;7.43;1.60;;;23.80;54.50;;;;;;5021547;28;20096;-79
2022/06/29 09:32:05;;;;;;;6.50;1.60;;;23.90;54.00;;;;;;5025318;28;20064;-78
2022/06/29 09:34:34;;;;;;;9.63;1.80;;;23.70;54.40;;;;;;5013987;28;20037;-79
2022/06/29 09:37:01;;;;;;;10.02;1.58;;;23.50;55.70;;;;;;5021660;28;20029;-78
2022/06/29 09:39:36;;;;;;;7.15;1.60;;;23.30;55.30;;;;;;5022823;28;20539;-78
2022/06/29 09:42:08;;;;;;;9.15;1.77;;;23.60;54.00;;;;;;5028126;28;20041;-79
2022/06/29 09:44:34;;;;;;;8.40;1.70;;;24.40;51.50;;;;;;5018316;28;20519;-79
2022/06/29 09:47:05;;;;;;;6.47;1.40;;;26.10;45.80;;;;;;5023178;28;20494;-79
2022/06/29 09:49:33;;;;;;;8.48;1.70;;;27.20;43.50;;;;;;5022697;28;20512;-79
2022/06/29 09:52:01;;;;;;;8.07;1.50;;;26.90;43.50;;;;;;5023953;28;20098;-79
2022/06/29 09:54:40;;;;;;;9.18;1.80;;;26.20;43.60;;;;;;5014357;28;20071;-80
2022/06/29 09:57:07;;;;;;;9.10;1.52;;;25.70;43.40;;;;;;5020571;28;20034;-79
2022/06/29 10:02:34;;;;;;;6.32;1.80;;;26.10;43.30;;;;;;5022020;28;20467;-83
2022/06/29 10:05:21;;;;;;;7.30;1.50;;;26.40;43.10;;;;;;5027350;28;20095;-81
2022/06/29 10:07:49;;;;;;;8.32;1.45;;;26.80;41.70;;;;;;5025797;28;20111;-78
2022/06/29 10:10:18;;;;;;;7.28;1.60;;;26.60;43.30;;;;;;5023475;28;20053;-87
2022/06/29 10:16:00;;;;;;;7.95;1.55;;;26.00;42.90;;;;;;5025334;28;20061;-76
2022/06/29 10:18:44;;;;;;;8.18;1.80;;;25.70;44.00;;;;;;5009554;28;20049;-84
2022/06/29 10:21:25;;;;;;;6.70;1.55;;;25.70;43.90;;;;;;5017485;28;20021;-85
2022/06/29 10:23:53;;;;;;;;;;;26.00;42.40;;;;;;5026153;28;20072;-80
2022/06/29 10:26:30;;;;;;;8.60;1.80;;;26.20;41.20;;;;;;5025626;28;20000;-81
2022/06/29 10:29:16;;;;;;;8.98;1.73;;;26.20;41.20;;;;;;5025779;28;20040;-81
2022/06/29 10:34:32;;;;;;;8.63;1.75;;;27.60;38.50;;;;;;5023351;28;20116;-86
2022/06/29 10:37:11;;;;;;;8.65;1.75;;;27.50;39.00;;;;;;5026965;28;20124;-82
2022/06/29 10:39:45;;;;;;;7.55;1.60;;;27.80;38.80;;;;;;5022851;28;20062;-85
2022/06/29 10:45:18;;;;;;;8.32;1.80;;;28.80;37.00;;;;;;5023520;28;20130;-76
2022/06/29 10:47:48;;;;;;;7.63;1.92;;;30.00;34.40;;;;;;5026822;28;20029;-78
2022/06/29 10:50:16;;;;;;;9.93;1.73;;;29.20;33.20;;;;;;5026546;28;20108;-80
2022/06/29 10:52:45;;;;;;;6.35;1.50;;;29.10;33.00;;;;;;5025299;28;20107;-78
2022/06/29 10:55:12;;;;;;;9.75;1.60;;;29.20;33.20;;;;;;5019509;28;20033;-78
2022/06/29 10:57:39;;;;;;;7.60;1.70;;;28.50;34.90;;;;;;5027057;28;20535;-80
2022/06/29 11:00:10;;;;;;;7.20;1.58;;;27.90;35.50;;;;;;5020750;28;20037;-78
2022/06/29 11:02:36;;;;;;;;;;;27.30;36.90;;;;;;5025933;28;20383;-86
2022/06/29 11:05:03;;;;;;;7.50;1.52;;;26.70;37.20;;;;;;5025414;28;20300;-82
2022/06/29 11:12:59;;;;;;;8.35;1.77;;;25.60;39.50;;;;;;5019271;28;20716;-77
2022/06/29 11:15:45;;;;;;;8.45;1.50;;;25.60;39.70;;;;;;5025402;28;20032;-78
2022/06/29 11:18:13;;;;;;;9.90;1.80;;;25.60;41.00;;;;;;5020167;28;20042;-77
2022/06/29 11:20:51;;;;;;;8.02;1.60;;;26.30;39.30;;;;;;5025821;28;20443;-81
2022/06/29 11:23:18;;;;;;;8.88;1.80;;;26.80;37.90;;;;;;5023468;28;20032;-79
2022/06/29 11:25:49;;;;;;;7.05;1.65;;;27.50;36.60;;;;;;5017172;28;20033;-78
2022/06/29 11:28:19;;;;;;;7.13;1.60;;;27.30;37.90;;;;;;5022768;28;20037;-78
2022/06/29 11:31:01;;;;;;;7.40;1.73;;;26.80;38.70;;;;;;5022000;28;20091;-78
2022/06/29 11:33:28;;;;;;;6.88;1.40;;;26.40;38.80;;;;;;5025243;28;20412;-79
2022/06/29 11:35:55;;;;;;;8.38;1.60;;;26.10;39.10;;;;;;5024806;28;20030;-78
2022/06/29 11:38:26;;;;;;;5.35;1.40;;;25.90;38.70;;;;;;5024401;28;20496;-78
2022/06/29 11:40:54;;;;;;;6.35;1.40;;;25.60;38.80;;;;;;5030402;28;20033;-79
2022/06/29 11:43:20;;;;;;;10.25;1.35;;;25.00;39.80;;;;;;5030230;28;20056;-79
2022/06/29 11:45:48;;;;;;;8.15;1.73;;;24.40;41.90;;;;;;5023375;28;20488;-79
2022/06/29 11:48:27;;;;;;;7.70;1.35;;;24.00;42.80;;;;;;5019700;28;20037;-79
2022/06/29 11:50:55;;;;;;;10.20;1.93;;;23.80;42.70;;;;;;5026948;28;20083;-77
2022/06/29 11:53:43;;;;;;;9.43;1.80;;;23.50;43.70;;;;;;5025162;28;20030;-79
2022/06/29 11:56:22;;;;;;;8.75;1.70;;;23.30;44.20;;;;;;5056399;28;20029;-80
2022/06/29 11:58:50;;;;;;;7.45;1.73;;;23.30;44.80;;;;;;5028851;28;20033;-80
2022/06/29 12:01:18;;;;;;;10.23;1.80;;;23.20;44.90;;;;;;5033866;28;20044;-80
2022/06/29 12:03:48;;;;;;;10.23;2.00;;;23.20;45.60;;;;;;5021427;28;20112;-80
2022/06/29 12:06:15;;;;;;;8.10;1.63;;;23.20;46.20;;;;;;5027329;28;20029;-80
2022/06/29 12:08:41;;;;;;;8.52;1.80;;;23.40;45.70;;;;;;5028113;28;20510;-81
2022/06/29 12:11:07;;;;;;;9.30;2.10;;;24.00;44.80;;;;;;5028658;28;20030;-82
2022/06/29 12:13:32;;;;;;;7.78;1.42;;;24.70;42.10;;;;;;5029359;28;20041;-83
2022/06/29 12:15:59;;;;;;;10.48;1.60;;;25.60;40.40;;;;;;5029955;28;20051;-81
2022/06/29 12:18:24;;;;;;;9.68;1.80;;;25.70;39.50;;;;;;5027631;28;20054;-82
2022/06/29 12:20:50;;;;;;;7.30;1.60;;;25.80;40.20;;;;;;5028236;28;20021;-83
2022/06/29 12:23:17;;;;;;;11.20;1.77;;;27.40;36.90;;;;;;5028534;28;20033;-80
2022/06/29 12:25:43;;;;;;;8.82;1.70;;;28.20;35.40;;;;;;5027646;28;20014;-82
2022/06/29 12:28:09;;;;;;;5.85;1.45;;;28.70;34.30;;;;;;5028000;28;20072;-83
2022/06/29 12:30:35;;;;;;;7.32;1.70;;;29.00;33.20;;;;;;5029443;28;20034;-78
2022/06/29 12:33:02;;;;;;;9.35;1.65;;;29.30;32.70;;;;;;5027497;28;20033;-77
2022/06/29 12:35:28;;;;;;;7.72;1.65;;;29.40;32.80;;;;;;5026460;28;20030;-78
2022/06/29 12:37:57;;;;;;;7.65;1.30;;;28.80;32.90;;;;;;5026095;28;20443;-79
2022/06/29 12:40:27;;;;;;;9.27;1.60;;;28.30;33.90;;;;;;5024815;28;20091;-80
2022/06/29 12:42:53;;;;;;;10.50;1.73;;;27.80;35.40;;;;;;5029748;28;20112;-79
2022/06/29 12:45:19;;;;;;;9.65;1.80;;;27.40;36.40;;;;;;5028786;28;20032;-80
2022/06/29 12:47:46;;;;;;;10.32;1.65;;;27.20;36.80;;;;;;5023282;28;20017;-78
2022/06/29 12:50:12;;;;;;;8.00;1.40;;;27.00;37.30;;;;;;5042697;28;20092;-76
2022/06/29 12:52:42;;;;;;;8.45;1.73;;;26.50;37.70;;;;;;5028219;28;20033;-76
2022/06/29 12:55:08;;;;;;;7.30;1.40;;;26.00;38.60;;;;;;5025403;28;20029;-78
2022/06/29 12:57:34;;;;;;;9.88;1.77;;;25.80;39.80;;;;;;5027933;28;20026;-79
2022/06/29 13:00:00;;;;;;;9.00;1.65;;;25.60;40.50;;;;;;5024662;28;20044;-77
2022/06/29 13:02:26;;;;;;;10.43;2.10;;;25.40;41.10;;;;;;5027343;28;20128;-78
2022/06/29 13:04:52;;;;;;;9.18;1.83;;;25.40;42.00;;;;;;5027147;28;20828;-79
2022/06/29 13:07:17;;;;;;;12.68;1.70;;;26.60;40.60;;;;;;5028161;28;20033;-79
2022/06/29 13:09:43;;;;;;;12.48;1.75;;;27.40;39.50;;;;;;5026246;28;20045;-79
2022/06/29 13:12:09;;;;;;;7.65;1.70;;;28.20;38.90;;;;;;5027167;28;20038;-78
2022/06/29 13:14:36;;;;;;;12.02;1.85;;;28.90;36.70;;;;;;5027907;28;20033;-78